sensor_id;sensor_type;location;lat;lon;timestamp;P1;durP1;ratioP1;P2;durP2;ratioP2
62696;SDS011;48761;42.680;23.312;2022-08-04T00:01:30;7.15;;;5.60;;
62696;SDS011;48761;42.680;23.312;2022-08-04T00:07:22;10.20;;;6.30;;
62696;SDS011;48761;42.680;23.312;2022-08-04T00:10:03;7.53;;;6.13;;
62696;SDS011;48761;42.680;23.312;2022-08-04T00:12:32;8.85;;;5.40;;
62696;SDS011;48761;42.680;23.312;2022-08-04T00:15:02;7.78;;;5.30;;
62696;SDS011;48761;42.680;23.312;2022-08-04T00:17:30;6.53;;;5.15;;
62696;SDS011;48761;42.680;23.312;2022-08-04T00:20:02;10.57;;;5.13;;
62696;SDS011;48761;42.680;23.312;2022-08-04T00:22:30;8.45;;;5.45;;
62696;SDS011;48761;42.680;23.312;2022-08-04T00:24:56;7.25;;;5.35;;
62696;SDS011;48761;42.680;23.312;2022-08-04T00:27:27;7.38;;;5.13;;
62696;SDS011;48761;42.680;23.312;2022-08-04T00:29:54;8.00;;;5.22;;
62696;SDS011;48761;42.680;23.312;2022-08-04T00:32:21;9.05;;;5.40;;
62696;SDS011;48761;42.680;23.312;2022-08-04T00:34:47;7.90;;;5.00;;
62696;SDS011;48761;42.680;23.312;2022-08-04T00:37:14;7.13;;;4.85;;
62696;SDS011;48761;42.680;23.312;2022-08-04T00:39:41;8.68;;;5.32;;
62696;SDS011;48761;42.680;23.312;2022-08-04T00:47:16;7.05;;;5.22;;
62696;SDS011;48761;42.680;23.312;2022-08-04T01:01:04;6.80;;;5.30;;
62696;SDS011;48761;42.680;23.312;2022-08-04T01:03:36;6.00;;;4.90;;
62696;SDS011;48761;42.680;23.312;2022-08-04T01:17:06;9.23;;;5.65;;
62696;SDS011;48761;42.680;23.312;2022-08-04T01:19:48;10.50;;;5.75;;
62696;SDS011;48761;42.680;23.312;2022-08-04T01:30:47;7.25;;;5.72;;
62696;SDS011;48761;42.680;23.312;2022-08-04T01:33:14;10.05;;;6.07;;
62696;SDS011;48761;42.680;23.312;2022-08-04T01:35:43;8.50;;;6.18;;
62696;SDS011;48761;42.680;23.312;2022-08-04T01:43:32;10.50;;;6.15;;
62696;SDS011;48761;42.680;23.312;2022-08-04T01:46:01;7.97;;;6.30;;
62696;SDS011;48761;42.680;23.312;2022-08-04T01:48:29;10.35;;;5.82;;
62696;SDS011;48761;42.680;23.312;2022-08-04T01:51:03;7.07;;;5.45;;
62696;SDS011;48761;42.680;23.312;2022-08-04T01:53:31;10.20;;;5.50;;
62696;SDS011;48761;42.680;23.312;2022-08-04T01:55:59;8.73;;;6.20;;
62696;SDS011;48761;42.680;23.312;2022-08-04T01:58:27;9.43;;;5.80;;
62696;SDS011;48761;42.680;23.312;2022-08-04T02:01:02;8.60;;;5.60;;
62696;SDS011;48761;42.680;23.312;2022-08-04T02:03:28;7.60;;;5.50;;
62696;SDS011;48761;42.680;23.312;2022-08-04T02:05:58;7.25;;;5.82;;
62696;SDS011;48761;42.680;23.312;2022-08-04T02:08:44;11.35;;;5.93;;
62696;SDS011;48761;42.680;23.312;2022-08-04T02:11:28;4.72;;;3.88;;
62696;SDS011;48761;42.680;23.312;2022-08-04T02:14:01;6.93;;;4.82;;
62696;SDS011;48761;42.680;23.312;2022-08-04T02:16:49;9.43;;;6.13;;
62696;SDS011;48761;42.680;23.312;2022-08-04T02:19:31;6.20;;;5.00;;
62696;SDS011;48761;42.680;23.312;2022-08-04T02:22:06;10.07;;;5.35;;
62696;SDS011;48761;42.680;23.312;2022-08-04T02:24:36;7.47;;;5.70;;
62696;SDS011;48761;42.680;23.312;2022-08-04T02:27:10;6.97;;;5.18;;
62696;SDS011;48761;42.680;23.312;2022-08-04T02:32:11;6.23;;;4.97;;
62696;SDS011;48761;42.680;23.312;2022-08-04T02:37:37;9.65;;;5.10;;
62696;SDS011;48761;42.680;23.312;2022-08-04T02:40:11;10.45;;;5.80;;
62696;SDS011;48761;42.680;23.312;2022-08-04T02:42:37;10.95;;;5.25;;
62696;SDS011;48761;42.680;23.312;2022-08-04T02:45:03;9.88;;;5.28;;
62696;SDS011;48761;42.680;23.312;2022-08-04T02:47:31;7.32;;;5.30;;
62696;SDS011;48761;42.680;23.312;2022-08-04T02:49:59;10.35;;;5.35;;
62696;SDS011;48761;42.680;23.312;2022-08-04T02:52:26;13.70;;;5.55;;
62696;SDS011;48761;42.680;23.312;2022-08-04T02:54:54;7.45;;;5.35;;
62696;SDS011;48761;42.680;23.312;2022-08-04T02:57:23;5.35;;;4.85;;
62696;SDS011;48761;42.680;23.312;2022-08-04T03:02:30;7.88;;;4.70;;
62696;SDS011;48761;42.680;23.312;2022-08-04T03:05:06;8.05;;;5.00;;
62696;SDS011;48761;42.680;23.312;2022-08-04T03:07:50;10.48;;;5.70;;
62696;SDS011;48761;42.680;23.312;2022-08-04T03:10:55;6.07;;;4.57;;
62696;SDS011;48761;42.680;23.312;2022-08-04T03:21:45;8.25;;;5.10;;
62696;SDS011;48761;42.680;23.312;2022-08-04T03:41:47;7.88;;;5.60;;
62696;SDS011;48761;42.680;23.312;2022-08-04T03:44:55;10.35;;;6.38;;
62696;SDS011;48761;42.680;23.312;2022-08-04T03:50:26;7.28;;;5.10;;
62696;SDS011;48761;42.680;23.312;2022-08-04T04:12:00;6.57;;;5.03;;
62696;SDS011;48761;42.680;23.312;2022-08-04T04:20:12;7.95;;;5.65;;
62696;SDS011;48761;42.680;23.312;2022-08-04T04:23:14;7.95;;;4.63;;
62696;SDS011;48761;42.680;23.312;2022-08-04T04:48:44;9.07;;;6.63;;
62696;SDS011;48761;42.680;23.312;2022-08-04T04:56:52;12.82;;;7.03;;
62696;SDS011;48761;42.680;23.312;2022-08-04T04:59:46;13.07;;;6.35;;
62696;SDS011;48761;42.680;23.312;2022-08-04T05:02:23;13.50;;;6.70;;
62696;SDS011;48761;42.680;23.312;2022-08-04T05:05:05;9.90;;;6.07;;
62696;SDS011;48761;42.680;23.312;2022-08-04T05:16:09;12.63;;;7.10;;
62696;SDS011;48761;42.680;23.312;2022-08-04T05:18:47;13.38;;;6.65;;
62696;SDS011;48761;42.680;23.312;2022-08-04T05:24:22;11.70;;;7.05;;
62696;SDS011;48761;42.680;23.312;2022-08-04T05:26:52;14.15;;;6.47;;
62696;SDS011;48761;42.680;23.312;2022-08-04T05:31:52;11.35;;;7.07;;
62696;SDS011;48761;42.680;23.312;2022-08-04T05:34:21;9.82;;;6.28;;
62696;SDS011;48761;42.680;23.312;2022-08-04T05:36:59;10.38;;;7.35;;
62696;SDS011;48761;42.680;23.312;2022-08-04T05:39:32;13.07;;;7.18;;
62696;SDS011;48761;42.680;23.312;2022-08-04T05:42:03;18.05;;;7.75;;
62696;SDS011;48761;42.680;23.312;2022-08-04T05:44:32;12.50;;;7.70;;
62696;SDS011;48761;42.680;23.312;2022-08-04T05:46:59;9.23;;;6.72;;
62696;SDS011;48761;42.680;23.312;2022-08-04T05:49:27;12.55;;;6.90;;
62696;SDS011;48761;42.680;23.312;2022-08-04T05:51:56;12.25;;;5.38;;
62696;SDS011;48761;42.680;23.312;2022-08-04T05:54:25;13.13;;;7.18;;
62696;SDS011;48761;42.680;23.312;2022-08-04T05:56:53;12.43;;;7.38;;
62696;SDS011;48761;42.680;23.312;2022-08-04T05:59:19;8.57;;;6.55;;
62696;SDS011;48761;42.680;23.312;2022-08-04T06:01:46;12.30;;;7.32;;
62696;SDS011;48761;42.680;23.312;2022-08-04T06:04:13;10.25;;;7.00;;
62696;SDS011;48761;42.680;23.312;2022-08-04T06:06:42;14.43;;;6.93;;
62696;SDS011;48761;42.680;23.312;2022-08-04T06:09:09;13.25;;;7.38;;
62696;SDS011;48761;42.680;23.312;2022-08-04T06:11:35;11.20;;;7.63;;
62696;SDS011;48761;42.680;23.312;2022-08-04T06:14:04;16.92;;;7.72;;
62696;SDS011;48761;42.680;23.312;2022-08-04T06:16:34;15.77;;;7.75;;
62696;SDS011;48761;42.680;23.312;2022-08-04T06:19:05;15.25;;;8.73;;
62696;SDS011;48761;42.680;23.312;2022-08-04T06:21:32;14.00;;;7.13;;
62696;SDS011;48761;42.680;23.312;2022-08-04T06:24:01;14.75;;;7.75;;
62696;SDS011;48761;42.680;23.312;2022-08-04T06:26:32;10.45;;;6.88;;
62696;SDS011;48761;42.680;23.312;2022-08-04T06:29:01;11.85;;;6.43;;
62696;SDS011;48761;42.680;23.312;2022-08-04T06:31:28;10.65;;;7.20;;
62696;SDS011;48761;42.680;23.312;2022-08-04T06:34:01;12.27;;;7.40;;
62696;SDS011;48761;42.680;23.312;2022-08-04T06:36:29;13.00;;;8.40;;
62696;SDS011;48761;42.680;23.312;2022-08-04T06:38:57;13.73;;;8.25;;
62696;SDS011;48761;42.680;23.312;2022-08-04T06:41:25;13.05;;;8.25;;
62696;SDS011;48761;42.680;23.312;2022-08-04T06:43:54;12.38;;;7.93;;
62696;SDS011;48761;42.680;23.312;2022-08-04T06:46:23;13.10;;;7.38;;
62696;SDS011;48761;42.680;23.312;2022-08-04T06:48:50;12.57;;;7.40;;
62696;SDS011;48761;42.680;23.312;2022-08-04T06:51:17;11.73;;;7.85;;
62696;SDS011;48761;42.680;23.312;2022-08-04T06:53:45;15.10;;;7.38;;
62696;SDS011;48761;42.680;23.312;2022-08-04T06:56:11;10.23;;;7.82;;
62696;SDS011;48761;42.680;23.312;2022-08-04T06:58:40;10.38;;;7.20;;
62696;SDS011;48761;42.680;23.312;2022-08-04T07:01:06;12.52;;;7.30;;
62696;SDS011;48761;42.680;23.312;2022-08-04T07:03:33;17.00;;;8.38;;
62696;SDS011;48761;42.680;23.312;2022-08-04T07:06:00;16.55;;;8.50;;
62696;SDS011;48761;42.680;23.312;2022-08-04T07:08:27;11.02;;;7.55;;
62696;SDS011;48761;42.680;23.312;2022-08-04T07:10:53;13.63;;;8.27;;
62696;SDS011;48761;42.680;23.312;2022-08-04T07:13:20;23.35;;;8.48;;
62696;SDS011;48761;42.680;23.312;2022-08-04T07:15:47;8.85;;;5.85;;
62696;SDS011;48761;42.680;23.312;2022-08-04T07:18:14;21.95;;;5.90;;
62696;SDS011;48761;42.680;23.312;2022-08-04T07:20:41;12.57;;;5.07;;
62696;SDS011;48761;42.680;23.312;2022-08-04T07:23:08;19.05;;;5.80;;
62696;SDS011;48761;42.680;23.312;2022-08-04T07:25:34;31.13;;;8.75;;
62696;SDS011;48761;42.680;23.312;2022-08-04T07:28:01;231.50;;;22.30;;
62696;SDS011;48761;42.680;23.312;2022-08-04T07:30:27;270.15;;;24.15;;
62696;SDS011;48761;42.680;23.312;2022-08-04T07:32:56;292.05;;;26.08;;
62696;SDS011;48761;42.680;23.312;2022-08-04T07:35:22;222.50;;;19.83;;
62696;SDS011;48761;42.680;23.312;2022-08-04T07:37:48;204.05;;;17.02;;
62696;SDS011;48761;42.680;23.312;2022-08-04T07:40:14;177.25;;;16.77;;
62696;SDS011;48761;42.680;23.312;2022-08-04T07:42:40;139.70;;;15.48;;
62696;SDS011;48761;42.680;23.312;2022-08-04T07:45:08;112.97;;;12.77;;
62696;SDS011;48761;42.680;23.312;2022-08-04T07:47:35;97.97;;;12.27;;
62696;SDS011;48761;42.680;23.312;2022-08-04T07:50:02;82.97;;;12.57;;
62696;SDS011;48761;42.680;23.312;2022-08-04T07:52:28;91.25;;;11.15;;
62696;SDS011;48761;42.680;23.312;2022-08-04T07:54:54;62.60;;;10.00;;
62696;SDS011;48761;42.680;23.312;2022-08-04T07:57:20;85.90;;;11.68;;
62696;SDS011;48761;42.680;23.312;2022-08-04T07:59:46;61.63;;;9.35;;
62696;SDS011;48761;42.680;23.312;2022-08-04T08:02:13;69.90;;;8.73;;
62696;SDS011;48761;42.680;23.312;2022-08-04T08:04:40;48.85;;;8.27;;
62696;SDS011;48761;42.680;23.312;2022-08-04T08:07:07;37.65;;;8.05;;
62696;SDS011;48761;42.680;23.312;2022-08-04T08:09:33;39.55;;;7.00;;
62696;SDS011;48761;42.680;23.312;2022-08-04T08:12:00;25.58;;;5.93;;
62696;SDS011;48761;42.680;23.312;2022-08-04T08:14:26;40.00;;;7.60;;
62696;SDS011;48761;42.680;23.312;2022-08-04T08:16:53;40.42;;;6.78;;
62696;SDS011;48761;42.680;23.312;2022-08-04T08:19:19;37.70;;;6.22;;
62696;SDS011;48761;42.680;23.312;2022-08-04T08:21:46;32.78;;;6.55;;
62696;SDS011;48761;42.680;23.312;2022-08-04T08:24:12;27.02;;;5.43;;
62696;SDS011;48761;42.680;23.312;2022-08-04T08:26:39;23.98;;;5.95;;
62696;SDS011;48761;42.680;23.312;2022-08-04T08:29:06;27.98;;;6.15;;
62696;SDS011;48761;42.680;23.312;2022-08-04T08:31:32;22.20;;;5.85;;
62696;SDS011;48761;42.680;23.312;2022-08-04T08:33:58;15.18;;;4.65;;
62696;SDS011;48761;42.680;23.312;2022-08-04T08:36:43;25.83;;;5.57;;
62696;SDS011;48761;42.680;23.312;2022-08-04T08:47:51;15.80;;;5.10;;
62696;SDS011;48761;42.680;23.312;2022-08-04T08:56:41;17.88;;;4.80;;
62696;SDS011;48761;42.680;23.312;2022-08-04T09:04:56;31.40;;;6.05;;
62696;SDS011;48761;42.680;23.312;2022-08-04T09:10:39;17.65;;;5.57;;
62696;SDS011;48761;42.680;23.312;2022-08-04T09:13:12;34.80;;;5.78;;
62696;SDS011;48761;42.680;23.312;2022-08-04T09:18:27;22.77;;;4.95;;
62696;SDS011;48761;42.680;23.312;2022-08-04T09:32:04;13.75;;;4.63;;
62696;SDS011;48761;42.680;23.312;2022-08-04T09:34:42;15.60;;;5.05;;
62696;SDS011;48761;42.680;23.312;2022-08-04T09:37:16;18.77;;;4.80;;
62696;SDS011;48761;42.680;23.312;2022-08-04T09:58:10;12.95;;;4.25;;
62696;SDS011;48761;42.680;23.312;2022-08-04T10:01:10;15.60;;;4.88;;
62696;SDS011;48761;42.680;23.312;2022-08-04T10:03:42;15.90;;;4.53;;
62696;SDS011;48761;42.680;23.312;2022-08-04T10:12:04;12.70;;;4.10;;
62696;SDS011;48761;42.680;23.312;2022-08-04T10:28:55;18.17;;;4.30;;
62696;SDS011;48761;42.680;23.312;2022-08-04T10:31:32;14.55;;;4.53;;
62696;SDS011;48761;42.680;23.312;2022-08-04T10:34:11;9.32;;;4.05;;
62696;SDS011;48761;42.680;23.312;2022-08-04T10:45:41;17.02;;;4.18;;
62696;SDS011;48761;42.680;23.312;2022-08-04T10:57:06;21.85;;;4.57;;
62696;SDS011;48761;42.680;23.312;2022-08-04T10:59:40;11.40;;;3.53;;
62696;SDS011;48761;42.680;23.312;2022-08-04T11:04:58;10.50;;;3.55;;
62696;SDS011;48761;42.680;23.312;2022-08-04T11:07:30;16.23;;;3.90;;
62696;SDS011;48761;42.680;23.312;2022-08-04T11:10:00;9.77;;;3.38;;
62696;SDS011;48761;42.680;23.312;2022-08-04T11:12:26;8.90;;;3.63;;
62696;SDS011;48761;42.680;23.312;2022-08-04T11:15:14;7.72;;;3.55;;
62696;SDS011;48761;42.680;23.312;2022-08-04T11:17:46;13.82;;;3.80;;
62696;SDS011;48761;42.680;23.312;2022-08-04T11:20:23;7.55;;;3.35;;
62696;SDS011;48761;42.680;23.312;2022-08-04T11:23:14;15.32;;;4.72;;
62696;SDS011;48761;42.680;23.312;2022-08-04T11:28:53;12.52;;;4.18;;
62696;SDS011;48761;42.680;23.312;2022-08-04T11:31:30;19.13;;;4.75;;
62696;SDS011;48761;42.680;23.312;2022-08-04T11:36:54;42.75;;;5.35;;
62696;SDS011;48761;42.680;23.312;2022-08-04T11:39:41;27.30;;;5.50;;
62696;SDS011;48761;42.680;23.312;2022-08-04T11:42:25;20.48;;;4.43;;
62696;SDS011;48761;42.680;23.312;2022-08-04T11:47:45;17.27;;;4.10;;
62696;SDS011;48761;42.680;23.312;2022-08-04T11:52:53;14.38;;;3.97;;
62696;SDS011;48761;42.680;23.312;2022-08-04T11:55:21;15.73;;;3.92;;
62696;SDS011;48761;42.680;23.312;2022-08-04T11:57:51;16.35;;;4.45;;
62696;SDS011;48761;42.680;23.312;2022-08-04T12:00:17;14.77;;;3.92;;
62696;SDS011;48761;42.680;23.312;2022-08-04T12:05:34;12.38;;;4.10;;
62696;SDS011;48761;42.680;23.312;2022-08-04T12:10:55;16.15;;;3.72;;
62696;SDS011;48761;42.680;23.312;2022-08-04T12:13:45;16.10;;;3.72;;
62696;SDS011;48761;42.680;23.312;2022-08-04T12:18:58;16.67;;;4.20;;
62696;SDS011;48761;42.680;23.312;2022-08-04T12:24:07;11.20;;;3.95;;
62696;SDS011;48761;42.680;23.312;2022-08-04T12:26:43;10.82;;;3.90;;
62696;SDS011;48761;42.680;23.312;2022-08-04T12:29:14;9.48;;;3.85;;
62696;SDS011;48761;42.680;23.312;2022-08-04T12:31:43;10.88;;;3.65;;
62696;SDS011;48761;42.680;23.312;2022-08-04T12:37:06;8.32;;;3.35;;
62696;SDS011;48761;42.680;23.312;2022-08-04T12:39:47;7.43;;;3.58;;
62696;SDS011;48761;42.680;23.312;2022-08-04T12:42:27;11.70;;;3.60;;
62696;SDS011;48761;42.680;23.312;2022-08-04T12:45:03;8.65;;;3.35;;
62696;SDS011;48761;42.680;23.312;2022-08-04T12:47:34;5.65;;;3.58;;
62696;SDS011;48761;42.680;23.312;2022-08-04T12:50:03;9.25;;;3.42;;
62696;SDS011;48761;42.680;23.312;2022-08-04T12:52:30;7.97;;;3.30;;
62696;SDS011;48761;42.680;23.312;2022-08-04T12:54:58;6.55;;;3.05;;
62696;SDS011;48761;42.680;23.312;2022-08-04T12:57:24;9.73;;;3.08;;
62696;SDS011;48761;42.680;23.312;2022-08-04T12:59:52;11.02;;;2.88;;
62696;SDS011;48761;42.680;23.312;2022-08-04T13:02:29;8.80;;;2.92;;
62696;SDS011;48761;42.680;23.312;2022-08-04T13:04:59;6.25;;;3.00;;
62696;SDS011;48761;42.680;23.312;2022-08-04T13:07:35;5.60;;;2.88;;
62696;SDS011;48761;42.680;23.312;2022-08-04T13:10:13;6.50;;;2.63;;
62696;SDS011;48761;42.680;23.312;2022-08-04T13:12:40;5.93;;;3.13;;
62696;SDS011;48761;42.680;23.312;2022-08-04T13:15:16;8.48;;;2.88;;
62696;SDS011;48761;42.680;23.312;2022-08-04T13:20:24;10.03;;;3.00;;
62696;SDS011;48761;42.680;23.312;2022-08-04T13:23:06;6.43;;;2.75;;
62696;SDS011;48761;42.680;23.312;2022-08-04T13:25:41;22.65;;;4.18;;
62696;SDS011;48761;42.680;23.312;2022-08-04T13:28:19;19.40;;;3.63;;
62696;SDS011;48761;42.680;23.312;2022-08-04T13:30:48;33.30;;;5.05;;
62696;SDS011;48761;42.680;23.312;2022-08-04T13:33:18;30.42;;;4.82;;
62696;SDS011;48761;42.680;23.312;2022-08-04T13:35:45;15.10;;;3.53;;
62696;SDS011;48761;42.680;23.312;2022-08-04T13:38:13;30.95;;;4.78;;
62696;SDS011;48761;42.680;23.312;2022-08-04T13:40:41;25.42;;;5.00;;
62696;SDS011;48761;42.680;23.312;2022-08-04T13:43:09;12.75;;;4.03;;
62696;SDS011;48761;42.680;23.312;2022-08-04T13:45:47;10.52;;;3.50;;
62696;SDS011;48761;42.680;23.312;2022-08-04T13:48:16;22.05;;;4.05;;
62696;SDS011;48761;42.680;23.312;2022-08-04T13:50:44;13.93;;;3.45;;
62696;SDS011;48761;42.680;23.312;2022-08-04T13:53:11;14.70;;;3.78;;
62696;SDS011;48761;42.680;23.312;2022-08-04T13:55:37;12.27;;;3.63;;
62696;SDS011;48761;42.680;23.312;2022-08-04T13:58:08;14.95;;;3.47;;
62696;SDS011;48761;42.680;23.312;2022-08-04T14:00:45;12.18;;;3.50;;
62696;SDS011;48761;42.680;23.312;2022-08-04T14:09:14;11.10;;;3.45;;
62696;SDS011;48761;42.680;23.312;2022-08-04T14:11:45;8.60;;;3.10;;
62696;SDS011;48761;42.680;23.312;2022-08-04T14:14:27;18.10;;;3.70;;
62696;SDS011;48761;42.680;23.312;2022-08-04T14:16:59;10.63;;;3.17;;
62696;SDS011;48761;42.680;23.312;2022-08-04T14:19:29;17.45;;;3.05;;
62696;SDS011;48761;42.680;23.312;2022-08-04T14:27:54;9.80;;;3.22;;
62696;SDS011;48761;42.680;23.312;2022-08-04T14:30:25;12.50;;;3.30;;
62696;SDS011;48761;42.680;23.312;2022-08-04T14:35:22;26.20;;;4.28;;
62696;SDS011;48761;42.680;23.312;2022-08-04T14:37:52;15.23;;;3.53;;
62696;SDS011;48761;42.680;23.312;2022-08-04T14:40:23;14.45;;;3.10;;
62696;SDS011;48761;42.680;23.312;2022-08-04T14:42:50;11.90;;;3.38;;
62696;SDS011;48761;42.680;23.312;2022-08-04T14:45:16;11.55;;;3.35;;
62696;SDS011;48761;42.680;23.312;2022-08-04T14:47:44;21.40;;;4.72;;
62696;SDS011;48761;42.680;23.312;2022-08-04T14:50:11;29.10;;;4.32;;
62696;SDS011;48761;42.680;23.312;2022-08-04T14:52:38;19.80;;;6.00;;
62696;SDS011;48761;42.680;23.312;2022-08-04T14:55:15;15.90;;;4.45;;
62696;SDS011;48761;42.680;23.312;2022-08-04T14:57:40;13.57;;;3.65;;
62696;SDS011;48761;42.680;23.312;2022-08-04T15:00:07;13.38;;;3.30;;
62696;SDS011;48761;42.680;23.312;2022-08-04T15:02:33;14.85;;;3.90;;
62696;SDS011;48761;42.680;23.312;2022-08-04T15:04:59;18.15;;;3.72;;
62696;SDS011;48761;42.680;23.312;2022-08-04T15:07:28;16.90;;;3.85;;
62696;SDS011;48761;42.680;23.312;2022-08-04T15:09:54;12.43;;;3.92;;
62696;SDS011;48761;42.680;23.312;2022-08-04T15:12:21;17.33;;;3.67;;
62696;SDS011;48761;42.680;23.312;2022-08-04T15:14:47;16.77;;;4.13;;
62696;SDS011;48761;42.680;23.312;2022-08-04T15:17:13;12.25;;;4.03;;
62696;SDS011;48761;42.680;23.312;2022-08-04T15:19:39;15.77;;;4.25;;
62696;SDS011;48761;42.680;23.312;2022-08-04T15:22:06;13.93;;;4.28;;
62696;SDS011;48761;42.680;23.312;2022-08-04T15:24:32;19.85;;;4.30;;
62696;SDS011;48761;42.680;23.312;2022-08-04T15:26:58;14.65;;;3.45;;
62696;SDS011;48761;42.680;23.312;2022-08-04T15:29:27;9.90;;;3.58;;
62696;SDS011;48761;42.680;23.312;2022-08-04T15:32:03;12.75;;;3.50;;
62696;SDS011;48761;42.680;23.312;2022-08-04T15:34:42;16.67;;;3.60;;
62696;SDS011;48761;42.680;23.312;2022-08-04T15:37:23;13.32;;;4.10;;
62696;SDS011;48761;42.680;23.312;2022-08-04T15:40:12;25.40;;;5.32;;
62696;SDS011;48761;42.680;23.312;2022-08-04T15:42:43;24.00;;;5.10;;
62696;SDS011;48761;42.680;23.312;2022-08-04T15:45:25;15.18;;;4.03;;
62696;SDS011;48761;42.680;23.312;2022-08-04T15:50:27;14.70;;;4.00;;
62696;SDS011;48761;42.680;23.312;2022-08-04T15:58:10;14.63;;;3.45;;
62696;SDS011;48761;42.680;23.312;2022-08-04T16:19:05;16.52;;;4.03;;
62696;SDS011;48761;42.680;23.312;2022-08-04T16:21:52;11.57;;;4.55;;
62696;SDS011;48761;42.680;23.312;2022-08-04T16:24:20;22.55;;;4.85;;
62696;SDS011;48761;42.680;23.312;2022-08-04T16:26:52;12.77;;;4.15;;
62696;SDS011;48761;42.680;23.312;2022-08-04T16:32:05;12.18;;;3.67;;
62696;SDS011;48761;42.680;23.312;2022-08-04T16:34:36;18.00;;;3.72;;
62696;SDS011;48761;42.680;23.312;2022-08-04T16:37:15;13.98;;;4.20;;
62696;SDS011;48761;42.680;23.312;2022-08-04T16:39:41;16.67;;;4.30;;
62696;SDS011;48761;42.680;23.312;2022-08-04T16:50:17;19.33;;;3.53;;
62696;SDS011;48761;42.680;23.312;2022-08-04T16:52:49;14.73;;;3.55;;
62696;SDS011;48761;42.680;23.312;2022-08-04T16:55:24;7.68;;;3.70;;
62696;SDS011;48761;42.680;23.312;2022-08-04T16:57:52;12.50;;;3.58;;
62696;SDS011;48761;42.680;23.312;2022-08-04T17:00:28;41.75;;;5.47;;
62696;SDS011;48761;42.680;23.312;2022-08-04T17:02:56;20.13;;;4.50;;
62696;SDS011;48761;42.680;23.312;2022-08-04T17:05:23;15.27;;;3.92;;
62696;SDS011;48761;42.680;23.312;2022-08-04T17:07:51;27.58;;;4.97;;
62696;SDS011;48761;42.680;23.312;2022-08-04T17:10:18;18.35;;;3.90;;
62696;SDS011;48761;42.680;23.312;2022-08-04T17:12:44;13.27;;;3.90;;
62696;SDS011;48761;42.680;23.312;2022-08-04T17:15:23;15.82;;;4.35;;
62696;SDS011;48761;42.680;23.312;2022-08-04T17:17:50;13.02;;;3.72;;
62696;SDS011;48761;42.680;23.312;2022-08-04T17:20:16;12.85;;;3.72;;
62696;SDS011;48761;42.680;23.312;2022-08-04T17:22:50;20.85;;;4.82;;
62696;SDS011;48761;42.680;23.312;2022-08-04T17:25:16;25.30;;;4.55;;
62696;SDS011;48761;42.680;23.312;2022-08-04T17:27:42;13.32;;;3.28;;
62696;SDS011;48761;42.680;23.312;2022-08-04T17:30:24;10.20;;;3.65;;
62696;SDS011;48761;42.680;23.312;2022-08-04T17:32:51;15.95;;;3.58;;
62696;SDS011;48761;42.680;23.312;2022-08-04T17:35:17;19.13;;;4.07;;
62696;SDS011;48761;42.680;23.312;2022-08-04T17:37:43;13.88;;;3.65;;
62696;SDS011;48761;42.680;23.312;2022-08-04T17:40:10;9.45;;;3.35;;
62696;SDS011;48761;42.680;23.312;2022-08-04T17:42:40;14.63;;;3.37;;
62696;SDS011;48761;42.680;23.312;2022-08-04T17:45:07;12.30;;;3.70;;
62696;SDS011;48761;42.680;23.312;2022-08-04T17:47:34;9.50;;;3.20;;
62696;SDS011;48761;42.680;23.312;2022-08-04T17:50:22;13.55;;;4.10;;
62696;SDS011;48761;42.680;23.312;2022-08-04T17:53:01;12.90;;;3.85;;
62696;SDS011;48761;42.680;23.312;2022-08-04T17:58:16;10.57;;;3.67;;
62696;SDS011;48761;42.680;23.312;2022-08-04T18:00:43;9.50;;;3.47;;
62696;SDS011;48761;42.680;23.312;2022-08-04T18:03:23;11.30;;;3.35;;
62696;SDS011;48761;42.680;23.312;2022-08-04T18:05:50;11.23;;;3.47;;
62696;SDS011;48761;42.680;23.312;2022-08-04T18:08:16;8.18;;;3.35;;
62696;SDS011;48761;42.680;23.312;2022-08-04T18:10:42;11.27;;;3.65;;
62696;SDS011;48761;42.680;23.312;2022-08-04T18:13:08;9.70;;;3.90;;
62696;SDS011;48761;42.680;23.312;2022-08-04T18:15:34;7.78;;;3.20;;
62696;SDS011;48761;42.680;23.312;2022-08-04T18:18:19;11.18;;;3.40;;
62696;SDS011;48761;42.680;23.312;2022-08-04T18:20:46;11.45;;;2.92;;
62696;SDS011;48761;42.680;23.312;2022-08-04T18:23:12;9.07;;;3.38;;
62696;SDS011;48761;42.680;23.312;2022-08-04T18:25:43;8.90;;;3.47;;
62696;SDS011;48761;42.680;23.312;2022-08-04T18:28:10;10.00;;;3.50;;
62696;SDS011;48761;42.680;23.312;2022-08-04T18:30:36;8.13;;;3.25;;
62696;SDS011;48761;42.680;23.312;2022-08-04T18:33:02;10.75;;;3.03;;
62696;SDS011;48761;42.680;23.312;2022-08-04T18:35:28;7.85;;;3.10;;
62696;SDS011;48761;42.680;23.312;2022-08-04T18:37:55;11.93;;;2.95;;
62696;SDS011;48761;42.680;23.312;2022-08-04T18:40:21;8.38;;;3.15;;
62696;SDS011;48761;42.680;23.312;2022-08-04T18:42:47;10.88;;;3.38;;
62696;SDS011;48761;42.680;23.312;2022-08-04T18:45:12;13.07;;;3.70;;
62696;SDS011;48761;42.680;23.312;2022-08-04T18:47:39;9.65;;;2.92;;
62696;SDS011;48761;42.680;23.312;2022-08-04T18:50:05;9.18;;;3.28;;
62696;SDS011;48761;42.680;23.312;2022-08-04T18:52:31;9.60;;;3.15;;
62696;SDS011;48761;42.680;23.312;2022-08-04T18:54:58;10.73;;;4.10;;
62696;SDS011;48761;42.680;23.312;2022-08-04T18:57:24;13.35;;;5.72;;
62696;SDS011;48761;42.680;23.312;2022-08-04T18:59:51;10.38;;;3.92;;
62696;SDS011;48761;42.680;23.312;2022-08-04T19:02:17;13.80;;;5.32;;
62696;SDS011;48761;42.680;23.312;2022-08-04T19:04:43;12.13;;;5.05;;
62696;SDS011;48761;42.680;23.312;2022-08-04T19:07:10;7.68;;;4.07;;
62696;SDS011;48761;42.680;23.312;2022-08-04T19:09:36;9.90;;;5.10;;
62696;SDS011;48761;42.680;23.312;2022-08-04T19:12:01;8.40;;;4.65;;
62696;SDS011;48761;42.680;23.312;2022-08-04T19:14:28;13.13;;;4.70;;
62696;SDS011;48761;42.680;23.312;2022-08-04T19:16:53;6.20;;;4.07;;
62696;SDS011;48761;42.680;23.312;2022-08-04T19:19:19;10.95;;;5.95;;
62696;SDS011;48761;42.680;23.312;2022-08-04T19:21:45;14.32;;;4.82;;
62696;SDS011;48761;42.680;23.312;2022-08-04T19:24:11;20.30;;;5.82;;
62696;SDS011;48761;42.680;23.312;2022-08-04T19:26:37;20.00;;;5.57;;
62696;SDS011;48761;42.680;23.312;2022-08-04T19:29:03;16.83;;;5.38;;
62696;SDS011;48761;42.680;23.312;2022-08-04T19:31:30;12.10;;;5.45;;
62696;SDS011;48761;42.680;23.312;2022-08-04T19:33:56;17.80;;;6.30;;
62696;SDS011;48761;42.680;23.312;2022-08-04T19:36:23;23.08;;;6.43;;
62696;SDS011;48761;42.680;23.312;2022-08-04T19:38:50;16.17;;;5.60;;
62696;SDS011;48761;42.680;23.312;2022-08-04T19:41:15;15.50;;;5.82;;
62696;SDS011;48761;42.680;23.312;2022-08-04T19:43:41;12.70;;;6.00;;
62696;SDS011;48761;42.680;23.312;2022-08-04T19:46:07;11.52;;;6.43;;
62696;SDS011;48761;42.680;23.312;2022-08-04T19:48:33;10.48;;;6.55;;
62696;SDS011;48761;42.680;23.312;2022-08-04T19:50:59;11.38;;;6.32;;
62696;SDS011;48761;42.680;23.312;2022-08-04T19:53:25;9.10;;;6.15;;
62696;SDS011;48761;42.680;23.312;2022-08-04T19:55:51;13.18;;;6.53;;
62696;SDS011;48761;42.680;23.312;2022-08-04T19:58:17;11.93;;;6.47;;
62696;SDS011;48761;42.680;23.312;2022-08-04T20:00:43;11.25;;;6.10;;
62696;SDS011;48761;42.680;23.312;2022-08-04T20:03:09;10.82;;;7.30;;
62696;SDS011;48761;42.680;23.312;2022-08-04T20:05:35;14.68;;;6.78;;
62696;SDS011;48761;42.680;23.312;2022-08-04T20:08:00;10.50;;;7.18;;
62696;SDS011;48761;42.680;23.312;2022-08-04T20:10:26;13.82;;;6.80;;